createdAt,value
2022-10-22T00:00:58.068Z,99.90
2022-10-22T00:03:25.216Z,99.90
2022-10-22T00:05:53.202Z,99.90
2022-10-22T00:08:20.421Z,99.90
2022-10-22T00:10:49.029Z,99.90
2022-10-22T00:18:17.921Z,99.90
2022-10-22T00:20:44.812Z,99.90
2022-10-22T00:23:11.757Z,99.90
2022-10-22T00:28:06.118Z,99.90
2022-10-22T00:35:30.548Z,99.90
2022-10-22T00:37:57.485Z,99.90
2022-10-22T00:40:24.698Z,99.90
2022-10-22T00:45:25.368Z,99.90
2022-10-22T00:47:55.085Z,99.90
2022-10-22T00:50:28.439Z,99.90
2022-10-22T00:52:56.255Z,99.90
2022-10-22T00:55:26.178Z,99.90
2022-10-22T00:57:57.384Z,99.90
2022-10-22T01:00:24.909Z,99.90
2022-10-22T01:02:54.636Z,99.90
2022-10-22T01:07:53.499Z,99.90
2022-10-22T01:10:45.375Z,99.90
2022-10-22T01:13:26.624Z,99.90
2022-10-22T01:15:57.955Z,99.90
2022-10-22T01:18:29.436Z,99.90
2022-10-22T01:21:41.975Z,99.90
2022-10-22T01:24:35.571Z,99.90
2022-10-22T01:27:10.948Z,99.90
2022-10-22T01:32:13.039Z,99.90
2022-10-22T01:34:44.360Z,99.90
2022-10-22T01:37:15.560Z,99.90
2022-10-22T01:39:45.929Z,99.90
2022-10-22T01:42:14.056Z,99.90
2022-10-22T01:44:43.690Z,99.90
2022-10-22T01:47:29.477Z,99.90
2022-10-22T01:50:26.048Z,99.90
2022-10-22T01:52:55.979Z,99.90
2022-10-22T01:55:36.328Z,99.90
2022-10-22T01:58:20.304Z,99.90
2022-10-22T02:01:01.545Z,99.90
2022-10-22T02:03:54.140Z,99.90
2022-10-22T02:06:31.566Z,99.90
2022-10-22T02:09:03.702Z,99.90
2022-10-22T02:11:56.329Z,99.90
2022-10-22T02:15:00.430Z,99.90
2022-10-22T02:17:36.137Z,99.90
2022-10-22T02:20:20.826Z,99.90
2022-10-22T02:22:50.569Z,99.90
2022-10-22T02:25:19.196Z,99.90
2022-10-22T02:27:54.741Z,99.90
2022-10-22T02:30:22.952Z,99.90
2022-10-22T02:33:02.822Z,99.90
2022-10-22T02:35:31.169Z,99.90
2022-10-22T02:37:59.837Z,99.90
2022-10-22T02:40:30.339Z,99.90
2022-10-22T02:45:24.908Z,99.90
2022-10-22T02:47:52.505Z,99.90
2022-10-22T02:50:19.544Z,99.90
2022-10-22T02:52:48.846Z,99.90
2022-10-22T02:55:15.937Z,99.90
2022-10-22T02:57:43.152Z,99.90
2022-10-22T03:00:11.644Z,99.90
2022-10-22T03:02:38.700Z,99.90
2022-10-22T03:05:06.496Z,99.90
2022-10-22T03:07:33.480Z,99.90
2022-10-22T03:10:00.497Z,99.90
2022-10-22T03:14:55.183Z,99.90
2022-10-22T03:17:22.192Z,99.90
2022-10-22T03:22:30.725Z,99.90
2022-10-22T03:25:00.856Z,99.90
2022-10-22T03:27:29.355Z,99.90
2022-10-22T03:29:57.905Z,99.90
2022-10-22T03:32:24.845Z,99.90
2022-10-22T03:34:52.088Z,99.90
2022-10-22T03:37:19.955Z,99.90
2022-10-22T03:39:47.109Z,99.90
2022-10-22T03:49:36.202Z,99.90
2022-10-22T03:52:12.054Z,99.90
2022-10-22T03:57:11.742Z,99.90
2022-10-22T03:59:41.601Z,99.90
2022-10-22T04:02:08.544Z,99.90
2022-10-22T04:04:38.574Z,99.90
2022-10-22T04:07:07.095Z,99.90
2022-10-22T04:09:34.905Z,99.90
2022-10-22T04:12:02.163Z,99.90
2022-10-22T04:14:29.153Z,99.90
2022-10-22T04:16:56.224Z,99.90
2022-10-22T04:26:46.541Z,99.90
2022-10-22T04:31:43.491Z,99.90
2022-10-22T04:36:40.353Z,99.90
2022-10-22T04:39:09.679Z,99.90
2022-10-22T04:41:39.718Z,99.90
2022-10-22T04:44:07.595Z,99.90
2022-10-22T04:51:32.718Z,99.90
2022-10-22T04:53:59.709Z,99.90
2022-10-22T04:56:29.644Z,99.90
2022-10-22T04:59:03.723Z,99.90
2022-10-22T05:01:39.982Z,99.90
2022-10-22T05:04:14.897Z,99.90
2022-10-22T05:06:42.194Z,99.90
2022-10-22T05:09:15.202Z,99.90
2022-10-22T05:11:48.788Z,99.90
2022-10-22T05:14:24.065Z,99.90
2022-10-22T05:16:53.154Z,99.90
2022-10-22T05:19:29.351Z,99.90
2022-10-22T05:22:00.109Z,99.90
2022-10-22T05:24:28.255Z,99.90
2022-10-22T05:26:57.413Z,99.90
2022-10-22T05:29:25.294Z,99.90
2022-10-22T05:34:23.618Z,99.90
2022-10-22T05:44:13.810Z,99.90
2022-10-22T05:49:13.712Z,99.90
2022-10-22T05:54:10.988Z,99.90
2022-10-22T05:56:38.397Z,99.90
2022-10-22T05:59:05.326Z,99.90
2022-10-22T06:01:35.366Z,99.90
2022-10-22T06:04:05.180Z,99.90
2022-10-22T06:06:37.516Z,99.90
2022-10-22T06:09:14.714Z,99.90
2022-10-22T06:11:43.268Z,99.90
2022-10-22T06:14:10.760Z,99.90
2022-10-22T06:16:38.369Z,99.90
2022-10-22T06:19:05.524Z,99.90
2022-10-22T06:21:34.562Z,99.90
2022-10-22T06:24:02.244Z,99.90
2022-10-22T06:26:33.057Z,99.90
2022-10-22T06:33:57.070Z,99.90
2022-10-22T06:36:24.976Z,99.90
2022-10-22T06:41:29.803Z,99.90
2022-10-22T06:44:01.305Z,99.90
2022-10-22T06:48:58.675Z,99.90
2022-10-22T06:51:26.801Z,99.90
2022-10-22T06:53:58.424Z,99.90
2022-10-22T06:56:31.054Z,99.90
2022-10-22T06:58:59.055Z,99.90
2022-10-22T07:01:31.618Z,99.90
2022-10-22T07:03:58.570Z,99.90
2022-10-22T07:06:26.452Z,99.90
2022-10-22T07:08:55.838Z,99.90
2022-10-22T07:11:26.027Z,99.90
2022-10-22T07:13:56.568Z,99.90
2022-10-22T07:21:27.089Z,99.90
2022-10-22T07:29:02.638Z,99.90
2022-10-22T07:31:30.473Z,99.90
2022-10-22T07:33:58.132Z,99.90
2022-10-22T07:38:58.360Z,99.90
2022-10-22T07:41:25.895Z,99.90
2022-10-22T07:43:52.997Z,99.90
2022-10-22T07:48:50.873Z,99.90
2022-10-22T07:51:18.132Z,99.90
2022-10-22T07:56:12.699Z,99.90
2022-10-22T07:58:40.208Z,99.90
2022-10-22T08:01:08.640Z,99.90
2022-10-22T08:03:35.957Z,99.90
2022-10-22T08:06:03.329Z,99.90
2022-10-22T08:08:31.048Z,99.90
2022-10-22T08:11:00.259Z,99.90
2022-10-22T08:16:01.936Z,99.90
2022-10-22T08:20:58.598Z,99.90
2022-10-22T08:23:28.714Z,99.90
2022-10-22T08:25:57.714Z,99.90
2022-10-22T08:30:52.257Z,99.90
2022-10-22T08:33:19.367Z,99.90
2022-10-22T08:35:51.098Z,99.90
2022-10-22T08:38:19.293Z,99.90
2022-10-22T08:40:53.956Z,99.90
2022-10-22T08:43:41.749Z,99.90
2022-10-22T08:46:26.789Z,99.90
2022-10-22T08:49:01.977Z,99.90
2022-10-22T08:51:34.438Z,99.90
2022-10-22T08:54:20.172Z,99.90
2022-10-22T08:57:20.130Z,99.90
2022-10-22T09:00:19.279Z,99.90
2022-10-22T09:03:02.272Z,99.90
2022-10-22T09:05:39.070Z,99.90
2022-10-22T09:08:11.510Z,99.90
2022-10-22T09:10:42.492Z,99.90
2022-10-22T09:13:13.878Z,99.90
2022-10-22T09:15:43.732Z,99.90
2022-10-22T09:18:47.006Z,99.90
2022-10-22T09:21:29.864Z,99.90
2022-10-22T09:24:04.926Z,99.90
2022-10-22T09:26:39.030Z,99.90
2022-10-22T09:29:09.530Z,99.90
2022-10-22T09:31:37.055Z,99.90
2022-10-22T09:34:07.382Z,99.90
2022-10-22T09:36:35.644Z,99.90
2022-10-22T09:39:02.464Z,99.90
2022-10-22T09:41:30.772Z,99.90
2022-10-22T09:43:59.218Z,99.90
2022-10-22T09:46:29.786Z,99.90
2022-10-22T09:49:02.049Z,99.90
2022-10-22T09:52:01.104Z,99.90
2022-10-22T09:54:40.044Z,99.90
2022-10-22T09:57:21.963Z,99.90
2022-10-22T09:59:51.321Z,99.90
2022-10-22T10:02:38.122Z,99.90
2022-10-22T10:05:06.656Z,99.90
2022-10-22T10:07:35.455Z,99.90
2022-10-22T10:10:02.834Z,99.90
2022-10-22T10:12:50.334Z,99.90
2022-10-22T10:15:20.412Z,99.90
2022-10-22T10:18:17.508Z,99.90
2022-10-22T10:20:59.600Z,99.90
2022-10-22T10:23:39.964Z,99.90
2022-10-22T10:26:13.649Z,99.90
2022-10-22T10:28:49.809Z,99.90
2022-10-22T10:31:23.060Z,99.90
2022-10-22T10:34:33.057Z,99.90
2022-10-22T10:36:59.828Z,99.90
2022-10-22T10:39:44.745Z,99.90
2022-10-22T10:42:26.855Z,99.90
2022-10-22T10:45:06.159Z,99.90
2022-10-22T10:47:50.549Z,99.90
2022-10-22T10:50:23.635Z,99.90
2022-10-22T10:53:19.765Z,99.90
2022-10-22T10:55:52.816Z,99.90
2022-10-22T10:58:43.381Z,99.90
2022-10-22T11:01:24.466Z,99.90
2022-10-22T11:04:03.881Z,99.90
2022-10-22T11:06:32.978Z,99.90
2022-10-22T11:09:25.332Z,99.90
2022-10-22T11:12:08.985Z,99.90
2022-10-22T11:14:58.776Z,99.90
2022-10-22T11:17:35.219Z,99.90
2022-10-22T11:20:17.269Z,99.90
2022-10-22T11:23:21.563Z,99.90
2022-10-22T11:25:50.624Z,99.90
2022-10-22T11:28:31.965Z,99.90
2022-10-22T11:31:03.942Z,99.90
2022-10-22T11:33:54.611Z,99.90
2022-10-22T11:36:29.298Z,99.90
2022-10-22T11:38:56.314Z,99.90
2022-10-22T11:41:30.710Z,99.90
2022-10-22T11:44:14.400Z,99.90
2022-10-22T11:46:59.568Z,99.90
2022-10-22T11:49:41.205Z,99.90
2022-10-22T11:52:26.568Z,99.90
2022-10-22T11:54:55.789Z,99.90
2022-10-22T11:57:36.038Z,99.90
2022-10-22T12:00:30.195Z,99.90
2022-10-22T12:03:32.247Z,99.90
2022-10-22T12:06:15.628Z,95.20
2022-10-22T12:08:54.340Z,98.90
2022-10-22T12:11:21.192Z,99.80
2022-10-22T12:14:09.966Z,99.90
2022-10-22T12:16:56.294Z,99.90
2022-10-22T12:19:25.976Z,99.90
2022-10-22T12:22:10.526Z,95.70
2022-10-22T12:24:44.575Z,92.80
2022-10-22T12:27:24.634Z,93.60
2022-10-22T12:29:56.791Z,98.40
2022-10-22T12:32:29.598Z,99.80
2022-10-22T12:34:56.711Z,99.90
2022-10-22T12:37:23.889Z,99.90
2022-10-22T12:39:51.854Z,99.60
2022-10-22T12:42:19.242Z,97.70
2022-10-22T12:44:46.532Z,94.80
2022-10-22T12:47:18.298Z,96.00
2022-10-22T12:49:48.965Z,97.40
2022-10-22T12:52:22.195Z,99.90
2022-10-22T12:54:52.504Z,97.30
2022-10-22T12:57:20.701Z,98.60
2022-10-22T12:59:50.394Z,99.90
2022-10-22T13:02:24.536Z,99.90
2022-10-22T13:05:07.714Z,99.90
2022-10-22T13:07:41.306Z,99.90
2022-10-22T13:10:24.009Z,99.90
2022-10-22T13:12:55.760Z,99.90
2022-10-22T13:15:42.991Z,99.90
2022-10-22T13:18:20.599Z,99.90
2022-10-22T13:20:58.865Z,99.90
2022-10-22T13:23:28.232Z,99.90
2022-10-22T13:26:14.164Z,99.90
2022-10-22T13:28:41.876Z,99.90
2022-10-22T13:31:15.490Z,99.90
2022-10-22T13:33:44.707Z,99.90
2022-10-22T13:36:15.266Z,99.90
2022-10-22T13:38:43.444Z,99.90
2022-10-22T13:41:27.096Z,99.90
2022-10-22T13:43:55.396Z,99.90
2022-10-22T13:46:23.527Z,99.90
2022-10-22T13:48:53.537Z,99.90
2022-10-22T13:51:29.171Z,99.90
2022-10-22T13:53:57.848Z,99.90
2022-10-22T13:56:25.355Z,99.90
2022-10-22T13:58:52.391Z,99.90
2022-10-22T14:01:23.952Z,99.90
2022-10-22T14:03:53.416Z,99.90
2022-10-22T14:06:22.318Z,99.90
2022-10-22T14:09:02.069Z,99.90
2022-10-22T14:11:30.683Z,99.90
2022-10-22T14:13:58.382Z,99.90
2022-10-22T14:16:28.279Z,99.90
2022-10-22T14:18:56.193Z,99.90
2022-10-22T14:21:24.156Z,99.90
2022-10-22T14:23:52.684Z,99.90
2022-10-22T14:26:24.323Z,99.90
2022-10-22T14:34:10.788Z,99.90
2022-10-22T14:36:37.756Z,99.90
2022-10-22T14:39:04.806Z,99.90
2022-10-22T14:41:31.811Z,99.90
2022-10-22T14:43:59.831Z,99.90
2022-10-22T14:46:26.855Z,99.90
2022-10-22T14:48:53.831Z,99.90
2022-10-22T14:51:21.553Z,99.90
2022-10-22T14:53:49.219Z,99.90
2022-10-22T14:56:21.170Z,99.90
2022-10-22T14:58:48.249Z,99.90
2022-10-22T15:01:15.234Z,99.90
2022-10-22T15:03:42.121Z,99.90
2022-10-22T15:06:09.036Z,99.90
2022-10-22T15:08:36.127Z,99.90
2022-10-22T15:11:12.062Z,99.90
2022-10-22T15:13:40.567Z,99.90
2022-10-22T15:16:09.103Z,99.90
2022-10-22T15:18:36.295Z,99.90
2022-10-22T15:21:15.095Z,99.90
2022-10-22T15:23:42.260Z,99.90
2022-10-22T15:26:10.644Z,99.90
2022-10-22T15:28:38.869Z,99.90
2022-10-22T15:31:06.719Z,99.90
2022-10-22T15:33:33.531Z,99.90
2022-10-22T15:36:13.115Z,99.90
2022-10-22T15:38:40.559Z,99.90
2022-10-22T15:41:10.154Z,99.90
2022-10-22T15:43:38.060Z,99.90
2022-10-22T15:46:15.594Z,99.90
2022-10-22T15:48:42.978Z,99.90
2022-10-22T15:51:16.380Z,99.90
2022-10-22T15:53:43.831Z,99.90
2022-10-22T15:56:14.414Z,99.90
2022-10-22T15:58:41.309Z,99.90
2022-10-22T16:01:11.180Z,99.90
2022-10-22T16:03:38.062Z,99.90
2022-10-22T16:06:06.528Z,99.90
2022-10-22T16:08:33.817Z,99.90
2022-10-22T16:11:00.947Z,99.90
2022-10-22T16:13:27.924Z,99.90
2022-10-22T16:15:54.979Z,99.90
2022-10-22T16:18:23.552Z,99.90
2022-10-22T16:20:50.576Z,99.90
2022-10-22T16:23:19.180Z,99.90
2022-10-22T16:25:47.101Z,99.90
2022-10-22T16:28:14.336Z,99.90
2022-10-22T16:30:41.757Z,99.90
2022-10-22T16:33:10.261Z,99.90
2022-10-22T16:35:43.477Z,99.90
2022-10-22T16:38:11.356Z,99.90
2022-10-22T16:40:38.681Z,99.90
2022-10-22T16:43:06.309Z,99.90
2022-10-22T16:45:33.758Z,99.90
2022-10-22T16:48:00.673Z,99.90
2022-10-22T16:50:28.097Z,99.90
2022-10-22T16:52:55.632Z,99.90
2022-10-22T16:55:22.607Z,99.90
2022-10-22T16:57:53.536Z,99.90
2022-10-22T17:00:21.127Z,99.90
2022-10-22T17:02:53.336Z,99.90
2022-10-22T17:05:20.993Z,99.90
2022-10-22T17:07:48.045Z,99.90
2022-10-22T17:10:16.143Z,99.90
2022-10-22T17:12:43.675Z,99.90
2022-10-22T17:15:10.742Z,99.90
2022-10-22T17:17:39.074Z,99.90
2022-10-22T17:20:07.239Z,99.90
2022-10-22T17:22:34.140Z,99.90
2022-10-22T17:25:23.522Z,99.90
2022-10-22T17:27:50.986Z,99.90
2022-10-22T17:30:23.333Z,99.90
2022-10-22T17:32:54.232Z,99.90
2022-10-22T17:35:21.225Z,99.90
2022-10-22T17:37:48.206Z,99.90
2022-10-22T17:40:16.219Z,99.90
2022-10-22T17:42:45.313Z,99.90
2022-10-22T17:45:12.310Z,99.90
2022-10-22T17:47:39.300Z,99.90
2022-10-22T17:50:07.338Z,99.90
2022-10-22T17:52:35.460Z,99.90
2022-10-22T17:55:04.046Z,99.90
2022-10-22T17:57:30.863Z,99.90
2022-10-22T17:59:57.702Z,99.90
2022-10-22T18:02:24.475Z,99.90
2022-10-22T18:04:52.380Z,99.90
2022-10-22T18:07:20.640Z,99.90
2022-10-22T18:09:47.735Z,99.90
2022-10-22T18:12:14.995Z,99.90
2022-10-22T18:14:41.825Z,99.90
2022-10-22T18:17:08.853Z,99.90
2022-10-22T18:19:35.887Z,99.90
2022-10-22T18:22:03.153Z,99.90
2022-10-22T18:24:29.961Z,99.90
2022-10-22T18:26:56.793Z,99.90
2022-10-22T18:29:23.639Z,99.90
2022-10-22T18:31:50.533Z,99.90
2022-10-22T18:34:20.303Z,99.90
2022-10-22T18:36:50.153Z,99.90
2022-10-22T18:39:17.618Z,99.90
2022-10-22T18:41:44.563Z,99.90
2022-10-22T18:44:14.121Z,99.90
2022-10-22T18:46:41.130Z,99.90
2022-10-22T18:49:08.132Z,99.90
2022-10-22T18:51:35.911Z,99.90
2022-10-22T18:54:18.219Z,99.90
2022-10-22T18:56:49.267Z,99.90
2022-10-22T18:59:23.245Z,99.90
2022-10-22T19:01:52.131Z,99.90
2022-10-22T19:04:19.171Z,99.90
2022-10-22T19:06:46.250Z,99.90
2022-10-22T19:09:16.780Z,99.90
2022-10-22T19:11:45.722Z,99.90
2022-10-22T19:14:14.704Z,99.90
2022-10-22T19:16:41.998Z,99.90
2022-10-22T19:19:09.083Z,99.90
2022-10-22T19:21:37.184Z,99.90
2022-10-22T19:24:04.335Z,99.90
2022-10-22T19:26:31.679Z,99.90
2022-10-22T19:28:59.963Z,99.90
2022-10-22T19:31:30.081Z,99.90
2022-10-22T19:33:58.640Z,99.90
2022-10-22T19:36:27.565Z,99.90
2022-10-22T19:38:54.906Z,99.90
2022-10-22T19:41:24.850Z,99.90
2022-10-22T19:43:53.910Z,99.90
2022-10-22T19:46:22.622Z,99.90
2022-10-22T19:48:51.244Z,99.90
2022-10-22T19:51:24.167Z,99.90
2022-10-22T19:53:56.350Z,99.90
2022-10-22T19:56:23.360Z,99.90
2022-10-22T19:58:50.336Z,99.90
2022-10-22T20:01:18.786Z,99.90
2022-10-22T20:04:01.011Z,99.90
2022-10-22T20:06:49.004Z,99.90
2022-10-22T20:09:16.555Z,99.90
2022-10-22T20:11:44.380Z,99.90
2022-10-22T20:14:16.920Z,99.90
2022-10-22T20:16:44.400Z,99.90
2022-10-22T20:19:17.404Z,99.90
2022-10-22T20:21:45.809Z,99.90
2022-10-22T20:24:13.256Z,99.90
2022-10-22T20:26:46.289Z,99.90
2022-10-22T20:29:14.931Z,99.90
2022-10-22T20:31:42.436Z,99.90
2022-10-22T20:34:10.149Z,99.90
2022-10-22T20:36:37.453Z,99.90
2022-10-22T20:39:07.774Z,99.90
2022-10-22T20:41:37.940Z,99.90
2022-10-22T20:44:05.374Z,99.90
2022-10-22T20:46:43.872Z,99.90
2022-10-22T20:49:15.465Z,99.90
2022-10-22T20:51:45.526Z,99.90
2022-10-22T20:54:14.351Z,99.90
2022-10-22T20:56:42.703Z,99.90
2022-10-22T20:59:12.263Z,99.90
2022-10-22T21:01:43.007Z,99.90
2022-10-22T21:04:24.470Z,99.90
2022-10-22T21:09:23.946Z,99.90
2022-10-22T21:14:25.056Z,99.90
2022-10-22T21:19:25.264Z,99.90
2022-10-22T21:21:53.903Z,99.90
2022-10-22T21:24:29.216Z,99.90
2022-10-22T21:27:00.655Z,99.90
2022-10-22T21:29:31.993Z,99.90
2022-10-22T21:37:09.668Z,99.90
2022-10-22T21:42:20.043Z,99.90
2022-10-22T21:44:49.092Z,99.90
2022-10-22T21:47:19.245Z,99.90
2022-10-22T21:57:11.829Z,99.90
2022-10-22T21:59:39.147Z,99.90
2022-10-22T22:02:06.840Z,99.90
2022-10-22T22:09:29.597Z,99.90
2022-10-22T22:16:53.039Z,99.90
2022-10-22T22:19:20.596Z,99.90
2022-10-22T22:21:47.872Z,99.90
2022-10-22T22:24:15.255Z,99.90
2022-10-22T22:26:43.105Z,99.90
2022-10-22T22:31:40.304Z,99.90
2022-10-22T22:34:11.146Z,99.90
2022-10-22T22:36:41.102Z,99.90
2022-10-22T22:39:15.503Z,99.90
2022-10-22T22:41:44.132Z,99.90
2022-10-22T22:44:12.621Z,99.90
2022-10-22T22:46:43.525Z,99.90
2022-10-22T22:49:12.802Z,99.90
2022-10-22T22:51:40.741Z,99.90
2022-10-22T22:54:08.168Z,99.90
2022-10-22T22:59:04.892Z,99.90
2022-10-22T23:01:36.674Z,99.90
2022-10-22T23:04:13.330Z,99.90
2022-10-22T23:06:41.143Z,99.90
2022-10-22T23:09:11.686Z,99.90
2022-10-22T23:11:40.028Z,99.90
2022-10-22T23:14:09.678Z,99.90
2022-10-22T23:16:42.012Z,99.90
2022-10-22T23:19:10.184Z,99.90
2022-10-22T23:21:39.940Z,99.90
2022-10-22T23:24:12.634Z,99.90
2022-10-22T23:26:44.058Z,99.90
2022-10-22T23:29:21.533Z,99.90
2022-10-22T23:31:51.984Z,99.90
2022-10-22T23:34:22.341Z,99.90
2022-10-22T23:39:24.720Z,99.90
2022-10-22T23:49:23.908Z,99.90
2022-10-22T23:54:18.756Z,99.90
